Latest Weather Observations for Wellcamp Airport

IDQ60801

Issued at 3:32 pm EST Wednesday 20 June 2018 (issued every 10 minutes, with the page automatically refreshed every 10 minutes)

About weather observations | Map of weather stations | Latest weather observations for QLD | Other Formats
Station Details ID: 541150 Name: WELLCAMP AIRPORT Lat: -27.55 Lon: 151.78 Height: 436.98 m
Data from the previous 72 hours. | See also: Recent months for locations in Queensland
Date/Time
EST
Temp
°C
App
Temp
°C
Dew
Point
°C
Rel
Hum
%
Delta-T
°C
Wind Press
QNH
hPa
Press
MSL
hPa
Rain since
9am
mm
Dir  Spd
km/h
Gust
km/h
Spd
kts
Gust
kts
20/03:30pm 17.8 15.5 4.7 42 6.4 E 6 9 3 5 1021.7 1021.6 0.0
20/03:00pm 18.5 16.2 5.0 41 6.6 SSE 6 9 3 5 1021.4 1021.3 0.0
20/02:30pm 17.4 14.5 4.4 42 6.3 SE 9 17 5 9 1021.6 1021.5 0.0
20/02:00pm 18.0 13.2 4.6 41 6.5 S 19 28 10 15 1021.5 1021.4 0.0
20/01:30pm 18.1 14.4 4.7 41 6.6 S 13 24 7 13 1021.3 1021.2 0.0
20/01:00pm 17.0 14.6 4.3 43 6.1 ENE 6 11 3 6 1021.7 1021.6 0.0
20/12:30pm 16.5 12.8 4.2 44 5.9 SE 13 22 7 12 1021.8 1021.7 0.0
20/12:00pm 16.3 11.5 4.4 45 5.7 SSE 19 24 10 13 1021.9 1021.8 0.0
20/11:30am 16.0 11.3 5.0 48 5.3 SSE 19 26 10 14 1022.2 1022.2 0.0
20/11:00am 14.7 10.6 4.1 49 5.0 SSE 15 24 8 13 1022.7 1022.6 0.0
20/10:30am 14.2 11.2 3.9 50 4.8 SSE 9 19 5 10 1023.2 1023.1 0.0
20/10:00am 11.9 9.1 3.2 55 3.9 SSW 7 11 4 6 1023.5 1023.4 0.0
20/09:30am 8.7 6.3 2.3 64 2.8 S 4 6 2 3 1023.8 1023.7 0.0
20/09:00am 7.8 5.7 1.6 65 2.6 ESE 2 6 1 3 1023.8 1023.7 0.0
20/08:30am 5.1 2.8 0.5 72 1.8 SSE 2 6 1 3 1023.8 1023.7 0.0
20/08:00am 1.8 -0.7 -1.1 81 1.1 S 2 6 1 3 1023.7 1023.6 0.0
20/07:30am -1.2 -4.7 -2.9 88 0.5 S 6 9 3 5 1023.4 1023.3 0.0
20/07:00am -3.5 -6.9 -5.0 89 0.3 SSE 4 6 2 3 1023.1 1023.0 0.0
20/06:30am -3.1 -6.0 -4.4 91 0.3 ESE 2 6 1 3 1022.8 1022.7 0.0
20/06:00am -1.8 -6.0 -3.7 87 0.5 SSE 9 15 5 8 1022.2 1022.2 0.0
20/05:30am -2.2 -5.8 -3.8 89 0.4 SSE 6 9 3 5 1021.7 1021.6 0.0
20/05:00am -2.4 -6.1 -4.1 88 0.4 SSE 6 7 3 4 1021.8 1021.7 0.0
20/04:30am -2.5 -6.4 -4.4 87 0.5 SSE 7 7 4 4 1021.5 1021.4 0.0
20/04:00am -1.7 -4.9 -3.6 87 0.6 S 4 7 2 4 1021.5 1021.4 0.0
20/03:30am -2.1 -5.4 -4.0 87 0.5 SSE 4 6 2 3 1021.4 1021.3 0.0
20/03:00am -1.5 -4.7 -3.5 86 0.6 SSE 4 7 2 4 1021.5 1021.4 0.0
20/02:30am -1.0 -4.5 -3.2 85 0.7 SSE 6 7 3 4 1021.3 1021.2 0.0
20/02:00am -0.4 -4.9 -3.1 82 0.9 S 11 15 6 8 1021.3 1021.2 0.0
20/01:30am -0.7 -5.2 -3.1 84 0.8 SSE 11 13 6 7 1021.2 1021.1 0.0
20/01:00am -0.8 -3.9 -2.8 86 0.6 S 4 6 2 3 1021.1 1021.0 0.0
20/12:30am 0.0 -2.8 -3.4 78 1.2 E 2 4 1 2 1021.0 1020.9 0.0
20/12:00am 0.4 -3.1 -2.6 80 1.1 S 6 11 3 6 1020.7 1020.6 0.0
 
Date/Time
EST
Temp
°C
App
Temp
°C
Dew
Point
°C
Rel
Hum
%
Delta-T
°C
Wind Press
QNH
hPa
Press
MSL
hPa
Rain since
9am
mm
Dir  Spd
km/h
Gust
km/h
Spd
kts
Gust
kts
19/11:30pm 1.9 -1.5 -1.7 77 1.3 S 6 9 3 5 1021.1 1021.0 0.0
19/11:00pm 2.0 -0.6 -1.4 78 1.2 N 2 6 1 3 1021.1 1021.0 0.0
19/10:30pm 3.5 0.6 -0.9 73 1.7 N 4 6 2 3 1021.1 1021.0 0.0
19/10:00pm 4.8 2.1 0.0 71 1.9 SE 4 7 2 4 1021.0 1020.9 0.0
19/09:30pm 4.6 1.2 -0.8 68 2.1 S 7 11 4 6 1020.9 1020.8 0.0
19/09:00pm 5.5 2.3 -0.3 66 2.3 SE 6 6 3 3 1020.8 1020.7 0.0
19/08:30pm 6.1 2.8 -1.1 60 2.8 SSW 6 7 3 4 1020.7 1020.6 0.0
19/08:00pm 9.1 6.2 1.3 58 3.3 SSW 6 9 3 5 1020.5 1020.4 0.0
19/07:30pm 8.6 3.6 1.1 59 3.1 SW 17 20 9 11 1020.3 1020.2 0.0
19/07:00pm 9.4 5.8 0.8 55 3.6 SW 9 13 5 7 1020.1 1019.9 0.0
19/06:30pm 10.3 7.1 0.6 51 4.1 S 7 11 4 6 1020.0 1019.8 0.0
19/06:00pm 11.3 6.1 0.4 47 4.6 SW 17 28 9 15 1019.3 1019.2 0.0
19/05:30pm 11.5 6.7 0.0 45 4.8 SW 15 30 8 16 1019.3 1019.2 0.0
19/05:00pm 12.3 6.5 -0.2 42 5.2 SW 20 32 11 17 1018.8 1018.7 0.0
19/04:30pm 13.3 6.4 0.0 40 5.7 SW 26 37 14 20 1018.8 1018.7 0.0
19/04:03pm 13.9 4.9 0.2 39 5.9 SW 37 56 20 30 1018.3 1018.2 0.0
19/04:00pm 13.9 4.5 0.2 39 5.9 SW 39 56 21 30 1018.2 1018.1 0.0
19/03:47pm 14.2 6.5 -0.3 37 6.2 SW 30 50 16 27 1018.4 1018.3 0.0
19/03:30pm 14.4 5.7 -0.5 36 6.3 SW 35 46 19 25 1018.3 1018.2 0.0
19/03:00pm 14.9 5.8 -0.8 34 6.7 WSW 37 57 20 31 1018.2 1018.1 0.0
19/02:31pm 15.4 7.3 -0.4 34 6.8 WSW 32 54 17 29 1017.9 1017.7 0.0
19/02:30pm 15.4 7.3 -0.4 34 6.8 WSW 32 48 17 26 1018.0 1017.8 0.0
19/02:00pm 15.0 6.3 -0.3 35 6.6 WSW 35 54 19 29 1018.0 1017.8 0.0
19/01:30pm 14.7 6.1 0.2 37 6.3 WSW 35 56 19 30 1018.2 1018.1 0.0
19/01:00pm 14.7 6.6 1.3 40 5.9 WSW 33 54 18 29 1018.4 1018.3 0.0
19/12:30pm 13.8 6.1 2.1 45 5.2 SW 32 46 17 25 1018.8 1018.7 0.0
19/12:00pm 13.1 5.4 2.4 48 4.8 SW 32 43 17 23 1019.4 1019.3 0.0
19/11:30am 13.1 6.2 2.6 49 4.7 WSW 28 39 15 21 1020.0 1019.8 0.0
19/11:00am 12.0 6.0 3.3 55 3.9 WSW 24 41 13 22 1020.6 1020.5 0.0
19/10:30am 11.2 4.8 3.0 57 3.7 WSW 26 39 14 21 1020.9 1020.8 0.0
19/10:00am 10.7 4.2 2.8 58 3.5 WSW 26 35 14 19 1021.0 1020.9 0.0
19/09:30am 9.9 4.6 3.2 63 3.0 WSW 20 33 11 18 1021.1 1021.0 0.0
19/09:00am 7.4 4.7 2.5 71 2.1 ENE 6 7 3 4 1020.6 1020.5 0.0
19/08:30am 4.8 1.0 1.7 80 1.3 N 11 13 6 7 1020.3 1020.2 0.0
19/08:00am 3.3 -0.2 1.2 86 0.8 NNE 9 11 5 6 1020.3 1020.2 0.0
19/07:30am 1.3 -2.8 0.0 91 0.5 N 11 15 6 8 1020.1 1019.9 0.0
19/07:00am -0.1 -3.6 -1.2 92 0.4 NNW 7 9 4 5 1020.3 1020.2 0.0
19/06:30am -0.2 -3.1 -1.2 93 0.4 NNW 4 9 2 5 1019.6 1019.5 0.0
19/06:00am 1.2 -2.2 -0.4 89 0.6 ESE 7 9 4 5 1019.4 1019.3 0.0
19/05:30am 1.2 -2.0 -0.3 90 0.6 E 6 7 3 4 1019.3 1019.2 0.0
19/05:00am 0.5 -2.3 -0.6 92 0.4 WNW 4 6 2 3 1019.4 1019.3 0.0
19/04:30am 0.3 -3.2 -1.1 90 0.5 NNW 7 9 4 5 1019.3 1019.2 0.0
19/04:00am 1.9 -0.8 0.3 89 0.6 NNE 4 6 2 3 1019.4 1019.3 0.0
19/03:30am 2.3 -0.1 0.0 85 0.9 SSE 2 6 1 3 1019.4 1019.3 0.0
19/03:00am 2.9 0.6 0.3 83 1.0 ESE 2 4 1 2 1019.6 1019.5 0.0
19/02:30am 4.7 2.6 1.4 79 1.3 SSW 2 6 1 3 1019.4 1019.3 0.0
19/02:00am 5.2 2.3 1.5 77 1.5 SW 6 13 3 7 1019.7 1019.6 0.0
19/01:30am 5.1 3.0 1.8 79 1.4 S 2 6 1 3 1020.0 1019.8 0.0
19/01:00am 6.6 3.6 2.1 73 1.9 SSW 7 11 4 6 1020.2 1020.1 0.0
19/12:30am 7.1 3.8 2.2 71 2.1 WSW 9 17 5 9 1020.4 1020.3 0.0
19/12:00am 7.4 3.3 2.1 69 2.2 WSW 13 20 7 11 1020.5 1020.4 0.0
 
Date/Time
EST
Temp
°C
App
Temp
°C
Dew
Point
°C
Rel
Hum
%
Delta-T
°C
Wind Press
QNH
hPa
Press
MSL
hPa
Rain since
9am
mm
Dir  Spd
km/h
Gust
km/h
Spd
kts
Gust
kts
18/11:30pm 7.5 3.0 2.0 68 2.3 WSW 15 22 8 12 1020.3 1020.2 0.0
18/11:00pm 7.9 3.4 2.0 66 2.5 WSW 15 24 8 13 1020.3 1020.2 0.0
18/10:30pm 8.6 3.7 2.2 64 2.7 WSW 17 26 9 14 1020.2 1020.1 0.0
18/10:00pm 8.7 3.2 2.1 63 2.8 WSW 20 26 11 14 1020.0 1019.8 0.0
18/09:30pm 7.6 2.6 1.5 65 2.5 W 17 22 9 12 1020.2 1020.1 0.0
18/09:00pm 4.6 0.8 -0.6 69 2.0 WNW 9 13 5 7 1020.3 1020.2 0.0
18/08:30pm 4.5 0.0 -0.5 70 1.9 W 13 13 7 7 1020.4 1020.3 0.0
18/08:00pm 6.7 3.1 0.6 65 2.5 W 9 13 5 7 1020.2 1020.1 0.0
18/07:30pm 7.5 3.2 0.7 62 2.8 W 13 17 7 9 1020.0 1019.8 0.0
18/07:00pm 9.5 6.0 1.4 57 3.4 WSW 9 15 5 8 1019.8 1019.7 0.0
18/06:30pm 10.2 5.9 1.3 54 3.8 WSW 13 22 7 12 1019.7 1019.6 0.0
18/06:00pm 10.1 5.4 1.0 53 3.8 WSW 15 24 8 13 1019.3 1019.2 0.0
18/05:30pm 10.7 5.3 1.3 52 4.0 WSW 19 32 10 17 1018.8 1018.7 0.0
18/05:00pm 11.2 4.5 1.2 50 4.3 SW 26 39 14 21 1018.2 1018.1 0.0
18/04:30pm 12.0 6.4 1.1 47 4.7 SW 20 35 11 19 1018.0 1017.8 0.0
18/04:00pm 12.6 4.7 1.3 46 4.9 SW 32 44 17 24 1017.8 1017.6 0.0
18/03:30pm 13.1 5.5 0.8 43 5.3 WSW 30 44 16 24 1017.4 1017.3 0.0
18/03:00pm 13.0 5.1 1.0 44 5.2 WSW 32 44 17 24 1017.2 1017.1 0.0
18/02:53pm 13.4 5.5 1.1 43 5.4 WSW 32 50 17 27 1017.3 1017.2 0.0
18/02:30pm 12.9 4.0 1.0 44 5.2 WSW 37 48 20 26 1017.4 1017.3 0.0
18/02:19pm 12.8 5.3 0.9 44 5.2 WSW 30 48 16 26 1017.6 1017.4 0.0
18/02:00pm 13.1 5.6 1.5 45 5.1 WSW 30 44 16 24 1017.9 1017.7 0.0
18/01:39pm 12.6 4.7 1.3 46 4.9 WSW 32 50 17 27 1017.9 1017.7 0.0
18/01:30pm 12.1 3.6 1.1 47 4.8 WSW 35 50 19 27 1017.9 1017.7 0.0
18/01:00pm 12.5 4.5 1.5 47 4.8 WSW 33 52 18 28 1018.2 1018.1 0.0
18/12:49pm 12.3 3.9 1.3 47 4.8 SW 35 56 19 30 1018.3 1018.2 0.0
18/12:30pm 12.0 3.2 1.1 47 4.7 WSW 37 52 20 28 1018.5 1018.4 0.0
18/12:06pm 12.5 5.0 0.9 45 5.0 W 30 48 16 26 1018.8 1018.7 0.0
18/12:00pm 12.7 4.8 0.8 44 5.1 W 32 46 17 25 1018.8 1018.7 0.0
18/11:35am 12.3 4.3 0.4 44 5.1 WSW 32 50 17 27 1019.2 1019.1 0.0
18/11:30am 11.7 3.5 0.5 46 4.8 WSW 33 50 18 27 1019.0 1018.9 0.0
18/11:00am 11.7 4.0 -0.1 44 4.9 WSW 30 46 16 25 1019.5 1019.4 0.0
18/10:37am 11.5 3.2 -0.3 44 4.9 SW 33 52 18 28 1019.5 1019.4 0.0
18/10:30am 11.2 2.9 -0.3 45 4.8 WSW 33 46 18 25 1019.6 1019.5 0.0
18/10:00am 10.8 3.1 -0.3 46 4.6 WSW 30 50 16 27 1020.1 1019.9 0.0
18/09:30am 10.1 2.8 -0.1 49 4.2 WSW 28 44 15 24 1020.1 1019.9 0.0
18/09:24am 9.6 2.2 -0.6 49 4.1 WSW 28 44 15 24 1020.1 1019.9 0.0
18/09:00am 7.6 3.1 -0.4 57 3.2 NW 13 17 7 9 1020.1 1019.9 0.0
18/08:30am 6.5 2.4 -0.5 61 2.8 NW 11 22 6 12 1020.4 1020.3 0.0
18/08:00am 2.9 -0.6 -2.6 67 2.0 N 6 7 3 4 1020.4 1020.3 0.0
18/07:30am -0.5 -3.8 -4.4 75 1.3 NNE 4 6 2 3 1020.2 1020.1 0.0
18/07:00am -2.2 -6.0 -5.2 80 0.9 N 6 9 3 5 1020.0 1019.8 0.0
18/06:30am -2.2 -6.5 -5.3 79 0.9 N 9 9 5 5 1019.8 1019.7 0.0
18/06:00am -1.7 -6.1 -5.4 76 1.1 N 9 9 5 5 1019.7 1019.6 0.0
18/05:30am -0.9 -4.8 -5.1 73 1.3 N 7 7 4 4 1019.7 1019.6 0.0
18/05:00am -2.5 -6.3 -5.6 79 0.9 N 6 6 3 3 1019.5 1019.4 0.0
18/04:30am -3.8 -7.8 -7.2 77 0.8 N 6 7 3 4 1019.5 1019.4 0.0
18/04:00am -3.8 -7.7 -6.7 80 0.7 N 6 7 3 4 1019.8 1019.7 0.0
18/03:30am -0.8 -4.6 -5.4 71 1.4 N 6 9 3 5 1020.0 1019.8 0.0
18/03:00am -1.2 -6.0 -5.6 72 1.3 N 11 13 6 7 1020.1 1019.9 0.0
18/02:30am -0.4 -4.2 -5.2 70 1.5 NNW 6 9 3 5 1020.2 1020.1 0.0
18/02:00am -0.5 -4.8 -5.3 70 1.5 N 9 11 5 6 1020.3 1020.2 0.0
18/01:30am 0.4 -2.9 -4.8 68 1.7 NNE 4 6 2 3 1020.4 1020.3 0.0
18/01:00am 1.3 -1.6 -4.5 65 2.0 NNW 2 6 1 3 1020.5 1020.4 0.0
18/12:30am 1.7 -1.6 -4.2 65 2.1 NW 4 6 2 3 1020.6 1020.5 0.0
18/12:00am 4.3 -0.1 -2.8 60 2.6 WSW 11 20 6 11 1020.6 1020.5 0.0
 
Date/Time
EST
Temp
°C
App
Temp
°C
Dew
Point
°C
Rel
Hum
%
Delta-T
°C
Wind Press
QNH
hPa
Press
MSL
hPa
Rain since
9am
mm
Dir  Spd
km/h
Gust
km/h
Spd
kts
Gust
kts
17/11:30pm 0.6 -3.7 -4.8 67 1.8 WSW 9 15 5 8 1020.7 1020.6 0.0
17/11:00pm 0.9 -2.8 -4.1 69 1.7 WNW 6 7 3 4 1020.9 1020.8 0.0
17/10:30pm 0.8 -2.9 -4.2 69 1.7 WNW 6 9 3 5 1020.6 1020.5 0.0
17/10:00pm 3.1 -0.7 -3.5 62 2.3 NW 7 13 4 7 1020.7 1020.6 0.0
17/09:30pm 3.9 0.1 -3.4 59 2.6 WNW 7 7 4 4 1020.5 1020.4 0.0
17/09:00pm 5.3 1.8 -3.0 55 3.0 W 6 6 3 3 1020.2 1020.1 0.0
17/08:30pm 4.7 0.5 -3.8 54 3.0 WSW 9 11 5 6 1020.3 1020.2 0.0
17/08:00pm 7.6 2.8 -2.7 48 3.9 WSW 13 17 7 9 1020.2 1020.1 0.0
17/07:30pm 7.9 3.0 -3.0 46 4.1 W 13 19 7 10 1020.1 1019.9 0.0
17/07:00pm 9.5 4.3 -3.1 41 4.8 WSW 15 20 8 11 1019.8 1019.7 0.0
17/06:30pm 10.2 4.5 -3.5 38 5.2 WSW 17 26 9 14 1019.4 1019.3 0.0
17/06:00pm 10.7 4.7 -3.4 37 5.4 SW 19 26 10 14 1019.0 1018.9 0.0
17/05:30pm 11.5 5.8 -3.4 35 5.8 WSW 17 26 9 14 1018.6 1018.5 0.0
17/05:00pm 12.4 6.1 -3.8 32 6.3 WSW 20 30 11 16 1018.3 1018.2 0.0
17/04:30pm 13.4 6.4 -3.4 31 6.6 WSW 24 35 13 19 1017.7 1017.5 0.0
17/04:00pm 14.2 6.0 -4.0 28 7.2 WSW 30 44 16 24 1017.2 1017.1 0.0

Other Formats:

Comma delimited format used in spreadsheet applications
http://www.bom.gov.au/fwo/IDQ60801/IDQ60801.99435.axf

JavaScript Object Notation format (JSON) in row-major order
http://www.bom.gov.au/fwo/IDQ60801/IDQ60801.99435.json